Time;durP1;ratioP1;P1;durP2;ratioP2;P2;SDS_P1;SDS_P2;PMS_P1;PMS_P2;Temp;Humidity;BMP_temperature;BMP_pressure;BME280_temperature;BME280_humidity;BME280_pressure;Samples;Min_cycle;Max_cycle;Signal;HPM_P1;HPM_P2
2022/04/29 14:02:44;;;;;;;2.43;1.70;;;17.10;74.70;;;;;;5066555;28;20225;-63
2022/04/29 14:08:43;;;;;;;2.97;1.70;;;17.30;73.10;;;;;;5072097;28;20239;-61
2022/04/29 14:11:12;;;;;;;2.90;2.00;;;17.20;73.90;;;;;;5068008;28;20201;-61
2022/04/29 14:13:38;;;;;;;3.03;2.00;;;17.20;75.30;;;;;;5075108;28;20252;-62
2022/04/29 14:16:05;;;;;;;2.57;2.00;;;17.10;74.80;;;;;;5074290;28;20706;-63
2022/04/29 14:18:34;;;;;;;2.70;1.90;;;17.00;74.40;;;;;;5069980;28;20217;-63
2022/04/29 14:21:00;;;;;;;3.53;1.80;;;17.00;74.90;;;;;;5077239;28;20211;-64
2022/04/29 14:23:27;;;;;;;3.07;1.70;;;16.90;75.50;;;;;;5077541;28;20205;-65
2022/04/29 14:25:54;;;;;;;2.40;1.90;;;16.90;75.90;;;;;;5077513;28;20209;-65
2022/04/29 14:28:21;;;;;;;3.83;1.90;;;16.90;75.40;;;;;;5077605;28;20211;-64
2022/04/29 14:30:47;;;;;;;2.70;1.90;;;17.00;75.30;;;;;;5076196;28;20215;-64
2022/04/29 14:33:14;;;;;;;3.80;2.20;;;16.90;74.00;;;;;;5077777;28;20215;-63
2022/04/29 14:35:42;;;;;;;2.80;2.10;;;16.90;74.50;;;;;;5077755;28;20218;-65
2022/04/29 14:38:09;;;;;;;2.23;1.60;;;16.90;74.70;;;;;;5077684;28;20316;-64
2022/04/29 14:40:37;;;;;;;2.80;1.70;;;16.90;75.20;;;;;;5077404;28;20247;-65
2022/04/29 14:43:04;;;;;;;2.30;1.77;;;16.90;74.90;;;;;;5077290;28;20219;-63
2022/04/29 14:45:32;;;;;;;4.93;2.40;;;16.80;74.70;;;;;;5077805;28;20204;-64
2022/04/29 14:47:59;;;;;;;2.77;2.10;;;16.70;75.00;;;;;;5077602;28;20287;-64
2022/04/29 14:50:26;;;;;;;4.07;1.93;;;16.70;75.20;;;;;;5077662;28;20583;-64
2022/04/29 14:52:54;;;;;;;4.83;2.17;;;16.60;75.30;;;;;;5077349;28;20201;-64
2022/04/29 14:55:21;;;;;;;3.43;2.00;;;16.50;75.80;;;;;;5075721;28;20223;-62
2022/04/29 14:57:48;;;;;;;3.63;1.80;;;16.40;76.00;;;;;;5073939;28;20216;-61
2022/04/29 15:00:17;;;;;;;2.53;1.87;;;16.30;75.70;;;;;;5071684;28;20200;-62
2022/04/29 15:02:43;;;;;;;2.27;1.60;;;16.30;75.80;;;;;;5066212;28;20240;-61
2022/04/29 15:05:10;;;;;;;4.77;2.13;;;16.20;76.20;;;;;;5059772;28;20658;-61
2022/04/29 15:07:37;;;;;;;3.87;1.70;;;16.20;76.80;;;;;;5059807;28;20200;-60
2022/04/29 15:15:35;;;;;;;3.20;1.60;;;16.30;77.10;;;;;;5073950;28;20240;-64
2022/04/29 15:18:02;;;;;;;2.10;1.80;;;16.30;77.10;;;;;;5074350;28;20224;-61
2022/04/29 15:20:29;;;;;;;2.60;1.70;;;16.30;77.00;;;;;;5074344;28;20446;-61
2022/04/29 15:22:56;;;;;;;3.13;1.87;;;16.20;77.10;;;;;;5073970;28;20209;-60
2022/04/29 15:25:24;;;;;;;2.57;1.80;;;16.20;77.20;;;;;;5073877;28;20200;-60
2022/04/29 15:27:51;;;;;;;3.27;1.90;;;16.20;77.60;;;;;;5073817;28;20231;-60
2022/04/29 15:30:18;;;;;;;3.90;1.97;;;16.20;77.20;;;;;;5073928;28;20210;-60
2022/04/29 15:32:45;;;;;;;5.17;2.40;;;16.10;77.20;;;;;;5073786;28;20216;-59
2022/04/29 15:35:12;;;;;;;3.73;2.07;;;16.10;78.10;;;;;;5073416;28;20201;-60
2022/04/29 15:37:39;;;;;;;5.47;2.00;;;16.00;78.20;;;;;;5073464;28;20343;-59
2022/04/29 15:40:07;;;;;;;2.07;1.90;;;16.00;78.30;;;;;;5073398;28;20213;-60
2022/04/29 15:42:35;;;;;;;3.97;2.20;;;15.90;78.80;;;;;;5073735;28;20212;-61
2022/04/29 15:45:09;;;;;;;3.77;2.80;;;16.00;79.00;;;;;;5073616;28;20570;-60
2022/04/29 15:47:35;;;;;;;4.53;2.30;;;16.00;78.90;;;;;;5073656;28;20199;-59
2022/04/29 15:50:02;;;;;;;3.17;2.20;;;16.00;79.30;;;;;;5073613;28;20574;-60
2022/04/29 15:52:29;;;;;;;2.20;1.87;;;16.00;79.00;;;;;;5073077;28;20214;-60
2022/04/29 15:54:56;;;;;;;2.57;1.97;;;15.90;79.40;;;;;;5073578;28;20688;-60
2022/04/29 15:57:23;;;;;;;3.77;2.17;;;16.00;79.60;;;;;;5073300;28;20255;-61
2022/04/29 15:59:52;;;;;;;3.50;2.20;;;15.90;79.50;;;;;;5073316;28;20211;-60
2022/04/29 16:02:18;;;;;;;2.57;2.10;;;15.90;78.80;;;;;;5073138;28;20228;-60
2022/04/29 16:04:45;;;;;;;2.40;1.90;;;15.90;79.00;;;;;;5072926;28;20455;-59
2022/04/29 16:07:12;;;;;;;2.90;2.00;;;16.00;78.80;;;;;;5072903;28;20201;-60
2022/04/29 16:09:39;;;;;;;2.57;1.83;;;16.00;78.50;;;;;;5073015;28;20234;-61
2022/04/29 16:12:07;;;;;;;2.50;1.90;;;16.00;78.30;;;;;;5072809;28;20209;-60
2022/04/29 16:14:33;;;;;;;4.00;2.40;;;15.90;78.20;;;;;;5072656;28;20233;-62
2022/04/29 16:17:02;;;;;;;5.47;2.40;;;15.90;78.00;;;;;;5073062;28;20220;-59
2022/04/29 16:22:13;;;;;;;3.60;2.23;;;15.80;79.20;;;;;;5072824;28;20180;-60
2022/04/29 16:27:24;;;;;;;2.27;1.97;;;15.80;78.70;;;;;;5072664;28;20264;-60
2022/04/29 16:29:51;;;;;;;3.33;2.20;;;15.80;79.10;;;;;;5072555;28;20216;-62
2022/04/29 16:32:20;;;;;;;2.90;2.23;;;15.80;78.90;;;;;;5072712;28;20212;-59
2022/04/29 16:34:47;;;;;;;5.80;2.53;;;15.80;79.10;;;;;;5072564;28;20270;-60
2022/04/29 16:37:13;;;;;;;4.47;2.87;;;15.80;79.50;;;;;;5072595;28;20221;-59
2022/04/29 16:39:40;;;;;;;3.63;2.43;;;15.80;79.70;;;;;;5072865;28;20207;-60
2022/04/29 16:42:09;;;;;;;7.60;4.40;;;15.70;79.40;;;;;;5072692;28;20205;-59
2022/04/29 16:44:36;;;;;;;4.93;2.93;;;15.70;79.50;;;;;;5072470;28;20266;-61
2022/04/29 16:47:03;;;;;;;6.83;3.53;;;15.60;79.40;;;;;;5072661;28;20226;-61
2022/04/29 16:49:31;;;;;;;6.80;3.20;;;15.60;79.90;;;;;;5072390;28;20208;-59
2022/04/29 16:51:57;;;;;;;3.33;2.33;;;15.40;80.50;;;;;;5072505;28;20208;-61
2022/04/29 16:54:24;;;;;;;6.07;3.00;;;15.30;81.30;;;;;;5072298;28;20209;-60
2022/04/29 16:59:35;;;;;;;4.47;2.77;;;15.30;82.10;;;;;;5072274;28;20629;-60
2022/04/29 17:02:04;;;;;;;9.40;4.30;;;15.20;82.30;;;;;;5072000;28;20235;-60
2022/04/29 17:04:32;;;;;;;6.40;3.23;;;15.30;83.40;;;;;;5071836;28;20204;-60
2022/04/29 17:06:59;;;;;;;6.83;3.40;;;15.30;84.00;;;;;;5072349;28;20235;-60
2022/04/29 17:09:25;;;;;;;5.97;3.00;;;15.20;87.50;;;;;;5072061;28;20210;-60
2022/04/29 17:11:52;;;;;;;5.03;3.10;;;15.20;89.60;;;;;;5072182;28;20556;-60
2022/04/29 17:14:20;;;;;;;6.17;3.00;;;15.20;90.20;;;;;;5072001;28;20226;-59
2022/04/29 17:16:47;;;;;;;4.90;2.87;;;15.20;90.60;;;;;;5071838;28;20205;-61
2022/04/29 17:19:14;;;;;;;4.37;2.97;;;15.20;91.20;;;;;;5072052;28;20228;-60
2022/04/29 17:21:42;;;;;;;4.73;2.80;;;15.20;91.20;;;;;;5071999;28;20208;-60
2022/04/29 17:24:09;;;;;;;4.97;2.80;;;15.20;91.80;;;;;;5071492;28;20259;-61
2022/04/29 17:26:37;;;;;;;5.17;3.13;;;15.10;92.70;;;;;;5071685;28;20950;-60
2022/04/29 17:29:04;;;;;;;7.03;3.20;;;15.00;92.90;;;;;;5071962;28;20201;-60
2022/04/29 17:31:34;;;;;;;6.03;3.87;;;15.00;93.30;;;;;;5071440;28;20215;-60
2022/04/29 17:34:01;;;;;;;6.37;3.73;;;14.90;93.30;;;;;;5071769;28;20299;-59
2022/04/29 17:36:28;;;;;;;7.43;3.63;;;15.00;93.10;;;;;;5071342;28;20576;-59
2022/04/29 17:38:56;;;;;;;8.30;4.13;;;15.00;93.20;;;;;;5071650;28;20228;-60
2022/04/29 17:44:07;;;;;;;7.30;3.50;;;14.80;93.60;;;;;;5071901;28;20188;-59
2022/04/29 17:46:34;;;;;;;5.60;3.60;;;14.80;93.80;;;;;;5071635;28;20574;-60
2022/04/29 17:49:03;;;;;;;5.53;3.47;;;14.80;94.40;;;;;;5071620;28;20622;-59
2022/04/29 17:51:29;;;;;;;6.50;3.43;;;14.70;94.30;;;;;;5071287;28;20201;-60
2022/04/29 17:53:57;;;;;;;6.13;3.10;;;14.70;94.30;;;;;;5071627;28;20200;-60
2022/04/29 17:56:24;;;;;;;4.67;3.23;;;14.70;94.70;;;;;;5071224;28;20228;-61
2022/04/29 17:58:51;;;;;;;8.83;3.80;;;14.60;95.00;;;;;;5071514;28;20232;-59
2022/04/29 18:01:18;;;;;;;5.20;3.30;;;14.60;95.20;;;;;;5071245;28;20240;-60
2022/04/29 18:03:45;;;;;;;6.07;2.87;;;14.60;95.80;;;;;;5071601;28;20195;-59
2022/04/29 18:06:12;;;;;;;5.23;2.90;;;14.50;96.00;;;;;;5071443;28;20204;-59
2022/04/29 18:08:40;;;;;;;5.50;3.03;;;14.50;96.40;;;;;;5071252;28;20207;-60
2022/04/29 18:11:08;;;;;;;4.67;2.80;;;14.50;96.40;;;;;;5071168;28;20201;-59
2022/04/29 18:13:35;;;;;;;6.17;2.90;;;14.40;96.50;;;;;;5071141;28;20232;-60
2022/04/29 18:16:02;;;;;;;5.80;3.00;;;14.40;96.80;;;;;;5071070;28;20283;-60
2022/04/29 18:18:29;;;;;;;5.27;3.00;;;14.30;96.80;;;;;;5071145;28;20228;-60
2022/04/29 18:20:55;;;;;;;5.90;3.40;;;14.30;96.90;;;;;;5071281;28;20564;-60
2022/04/29 18:23:22;;;;;;;6.80;3.33;;;14.30;97.00;;;;;;5071104;28;20209;-59
2022/04/29 18:25:49;;;;;;;5.67;3.43;;;14.20;97.00;;;;;;5071346;28;20655;-60
2022/04/29 18:28:18;;;;;;;11.13;3.43;;;14.20;97.10;;;;;;5071034;28;20216;-60
2022/04/29 18:30:46;;;;;;;7.23;3.40;;;14.20;97.30;;;;;;5071289;28;20291;-61
2022/04/29 18:33:16;;;;;;;12.67;8.00;;;14.20;97.30;;;;;;5070790;28;20204;-60
2022/04/29 18:35:43;;;;;;;8.97;4.70;;;14.10;97.30;;;;;;5071348;28;20204;-60
2022/04/29 18:38:10;;;;;;;9.23;5.50;;;14.20;97.30;;;;;;5074177;28;20225;-60
2022/04/29 18:40:37;;;;;;;6.97;4.60;;;14.10;97.20;;;;;;5074822;28;20216;-61
2022/04/29 18:43:04;;;;;;;7.70;4.10;;;14.10;97.10;;;;;;5074968;28;20254;-60
2022/04/29 18:45:32;;;;;;;12.93;7.50;;;14.10;97.30;;;;;;5074926;28;20204;-58
2022/04/29 18:47:59;;;;;;;8.73;5.30;;;14.00;98.00;;;;;;5074667;28;20215;-59
2022/04/29 18:50:25;;;;;;;9.53;4.67;;;14.00;97.90;;;;;;5074766;28;20205;-58
2022/04/29 18:52:53;;;;;;;5.57;3.60;;;13.90;97.70;;;;;;5074866;28;20299;-60
2022/04/29 18:55:19;;;;;;;7.30;4.13;;;13.90;97.50;;;;;;5074628;28;20201;-59
2022/04/29 18:57:46;;;;;;;5.83;3.57;;;13.80;98.20;;;;;;5074623;28;20225;-61
2022/04/29 19:00:14;;;;;;;6.33;4.20;;;13.70;98.40;;;;;;5074444;28;20227;-59
2022/04/29 19:02:42;;;;;;;7.67;4.50;;;13.70;98.20;;;;;;5074368;28;20232;-59
2022/04/29 19:05:09;;;;;;;8.10;4.50;;;13.70;98.00;;;;;;5074446;28;20207;-60
2022/04/29 19:07:36;;;;;;;7.57;4.47;;;13.70;97.90;;;;;;5074559;28;20646;-60
2022/04/29 19:10:05;;;;;;;12.40;7.30;;;13.70;97.80;;;;;;5073992;28;20220;-59
2022/04/29 19:12:31;;;;;;;18.27;10.50;;;13.60;97.70;;;;;;5074001;28;20211;-59
2022/04/29 19:14:58;;;;;;;12.77;8.43;;;13.60;97.70;;;;;;5074246;28;20588;-59
2022/04/29 19:17:25;;;;;;;10.53;6.40;;;13.60;97.70;;;;;;5074083;28;20210;-59
2022/04/29 19:19:53;;;;;;;9.53;5.20;;;13.60;97.70;;;;;;5074321;28;20216;-58
2022/04/29 19:22:20;;;;;;;10.13;5.30;;;13.60;97.80;;;;;;5073733;28;20209;-59
2022/04/29 19:24:47;;;;;;;8.90;4.73;;;13.60;97.80;;;;;;5074230;28;20200;-60
2022/04/29 19:27:17;;;;;;;8.40;5.17;;;13.60;98.00;;;;;;5073790;28;20608;-58
2022/04/29 19:29:44;;;;;;;10.87;5.43;;;13.60;98.00;;;;;;5074101;28;20681;-60
2022/04/29 19:32:11;;;;;;;9.87;5.10;;;13.60;98.10;;;;;;5073530;28;20204;-61
2022/04/29 19:34:38;;;;;;;12.40;6.00;;;13.60;98.20;;;;;;5073996;28;20220;-59
2022/04/29 19:37:06;;;;;;;9.83;5.60;;;13.50;98.50;;;;;;5073832;28;20678;-60
2022/04/29 19:39:33;;;;;;;8.97;4.97;;;13.40;98.40;;;;;;5073846;28;20716;-58
2022/04/29 19:42:00;;;;;;;7.23;3.87;;;13.30;98.30;;;;;;5073362;28;20216;-59
2022/04/29 19:44:27;;;;;;;6.93;3.70;;;13.30;98.00;;;;;;5073712;28;20689;-61
2022/04/29 19:46:54;;;;;;;6.97;3.60;;;13.30;97.80;;;;;;5073020;28;20208;-59
2022/04/29 19:49:22;;;;;;;6.00;3.50;;;13.30;97.50;;;;;;5073946;28;20204;-59
2022/04/29 19:51:49;;;;;;;8.17;4.40;;;13.30;97.50;;;;;;5073595;28;20204;-59
2022/04/29 19:54:18;;;;;;;7.43;4.40;;;13.30;98.30;;;;;;5073023;28;20300;-60
2022/04/29 19:59:25;;;;;;;7.67;4.40;;;13.00;99.20;;;;;;5072504;28;20609;-60
2022/04/29 20:04:38;;;;;;;7.30;4.00;;;12.80;99.40;;;;;;5073217;28;20204;-59
2022/04/29 20:07:05;;;;;;;6.87;4.10;;;12.80;99.30;;;;;;5073268;28;20567;-59
2022/04/29 20:09:33;;;;;;;8.10;4.17;;;12.80;99.20;;;;;;5073395;28;20207;-59
2022/04/29 20:12:00;;;;;;;7.10;4.23;;;12.80;99.20;;;;;;5073196;28;20236;-60
2022/04/29 20:14:27;;;;;;;6.70;3.93;;;12.80;99.20;;;;;;5073115;28;20661;-59
2022/04/29 20:16:54;;;;;;;7.70;4.13;;;12.80;99.20;;;;;;5072632;28;20211;-59
2022/04/29 20:19:21;;;;;;;9.67;4.50;;;12.80;99.10;;;;;;5073092;28;20224;-59
2022/04/29 20:21:50;;;;;;;8.30;4.83;;;12.90;99.10;;;;;;5073080;28;20620;-60
2022/04/29 20:24:17;;;;;;;8.90;4.50;;;12.90;98.90;;;;;;5073113;28;20197;-59
2022/04/29 20:26:46;;;;;;;7.03;4.10;;;12.90;98.80;;;;;;5073097;28;20574;-60
2022/04/29 20:29:13;;;;;;;8.33;4.43;;;12.90;98.70;;;;;;5072962;28;20558;-60
2022/04/29 20:31:40;;;;;;;8.33;4.50;;;12.90;98.60;;;;;;5072858;28;20751;-59
2022/04/29 20:34:07;;;;;;;8.57;4.73;;;12.90;98.50;;;;;;5072767;28;20208;-59
2022/04/29 20:36:34;;;;;;;13.23;4.90;;;12.90;98.40;;;;;;5072562;28;20216;-61
2022/04/29 20:39:01;;;;;;;7.30;4.40;;;12.90;98.40;;;;;;5072471;28;20312;-62
2022/04/29 20:44:18;;;;;;;8.37;5.13;;;13.00;98.30;;;;;;5072518;28;20187;-60
2022/04/29 20:46:44;;;;;;;6.53;4.40;;;13.00;98.20;;;;;;5072093;28;20213;-59
2022/04/29 20:49:11;;;;;;;8.43;4.30;;;13.00;98.10;;;;;;5072188;28;20658;-59
2022/04/29 20:51:38;;;;;;;7.67;4.60;;;13.00;98.20;;;;;;5072214;28;20204;-60
2022/04/29 20:54:06;;;;;;;4.83;3.60;;;13.00;98.20;;;;;;5072449;28;20204;-59
2022/04/29 20:56:33;;;;;;;6.57;3.50;;;12.90;97.60;;;;;;5072462;28;20577;-59
2022/04/29 20:59:00;;;;;;;5.70;3.50;;;12.90;97.50;;;;;;5071382;28;20225;-59
2022/04/29 21:01:29;;;;;;;5.43;3.13;;;12.90;97.00;;;;;;5072152;28;20595;-60
2022/04/29 21:03:56;;;;;;;5.47;3.43;;;12.80;96.80;;;;;;5071887;28;20193;-60
2022/04/29 21:06:23;;;;;;;6.97;3.63;;;12.80;97.40;;;;;;5072309;28;20201;-60
2022/04/29 21:08:51;;;;;;;8.27;3.73;;;12.70;97.70;;;;;;5072065;28;20197;-59
2022/04/29 21:11:17;;;;;;;6.70;3.90;;;12.70;97.90;;;;;;5072149;28;20205;-59
2022/04/29 21:13:45;;;;;;;5.23;3.40;;;12.70;98.00;;;;;;5071788;28;20708;-60
2022/04/29 21:16:13;;;;;;;6.67;3.87;;;12.70;97.70;;;;;;5072046;28;20578;-60
2022/04/29 21:18:41;;;;;;;7.10;3.93;;;12.60;97.80;;;;;;5071557;28;20220;-60
2022/04/29 21:21:08;;;;;;;6.30;3.73;;;12.60;98.00;;;;;;5072073;28;20204;-58
2022/04/29 21:23:35;;;;;;;6.23;3.70;;;12.60;98.20;;;;;;5071845;28;20554;-60
2022/04/29 21:26:02;;;;;;;9.60;5.40;;;12.50;98.30;;;;;;5071548;28;20200;-60
2022/04/29 21:30:57;;;;;;;9.27;4.87;;;12.50;98.50;;;;;;5071418;28;20225;-59
2022/04/29 21:31:17;;;;;;;8.47;4.37;;;12.50;98.60;;;;;;5071654;28;20326;-58
2022/04/29 21:33:45;;;;;;;9.37;4.67;;;12.50;98.80;;;;;;5071831;28;20681;-59
2022/04/29 21:36:13;;;;;;;9.40;4.90;;;12.50;98.80;;;;;;5072084;28;20677;-60
2022/04/29 21:38:40;;;;;;;6.80;4.13;;;12.50;99.00;;;;;;5071788;28;20232;-59
2022/04/29 21:41:07;;;;;;;6.50;4.23;;;12.50;99.00;;;;;;5071770;28;20204;-59
2022/04/29 21:43:34;;;;;;;8.83;4.70;;;12.50;98.90;;;;;;5071724;28;20208;-60
2022/04/29 21:46:00;;;;;;;6.93;3.50;;;12.50;99.00;;;;;;5071893;28;20682;-59
2022/04/29 21:48:27;;;;;;;6.53;3.97;;;12.50;98.80;;;;;;5071869;28;20201;-59
2022/04/29 21:50:56;;;;;;;5.73;3.40;;;12.50;98.70;;;;;;5071701;28;20208;-60
2022/04/29 21:53:23;;;;;;;6.90;3.97;;;12.50;98.60;;;;;;5071737;28;20547;-60
2022/04/29 21:55:50;;;;;;;8.20;4.20;;;12.40;98.80;;;;;;5071647;28;20208;-59
2022/04/29 21:58:17;;;;;;;6.87;4.23;;;12.30;99.30;;;;;;5071563;28;20749;-59
2022/04/29 22:00:46;;;;;;;11.87;4.20;;;12.40;99.30;;;;;;5071853;28;20684;-60
2022/04/29 22:03:14;;;;;;;8.00;3.53;;;12.40;99.50;;;;;;5071152;28;20708;-60
2022/04/29 22:05:42;;;;;;;8.07;3.77;;;12.30;99.30;;;;;;5071165;28;20211;-59
2022/04/29 22:08:10;;;;;;;7.63;4.30;;;12.30;99.40;;;;;;5071611;28;20205;-59
2022/04/29 22:10:37;;;;;;;8.93;4.40;;;12.20;99.60;;;;;;5072361;28;20207;-60
2022/04/29 22:13:05;;;;;;;7.33;4.10;;;12.20;99.60;;;;;;5075202;28;20229;-59
2022/04/29 22:15:32;;;;;;;9.43;4.27;;;12.20;99.70;;;;;;5075449;28;20278;-59
2022/04/29 22:17:59;;;;;;;7.67;4.23;;;12.30;99.80;;;;;;5075447;28;20208;-61
2022/04/29 22:20:28;;;;;;;7.77;4.37;;;12.20;99.80;;;;;;5075132;28;20229;-61
2022/04/29 22:22:55;;;;;;;8.17;4.23;;;12.30;99.80;;;;;;5075316;28;20228;-59
2022/04/29 22:25:23;;;;;;;6.70;4.03;;;12.20;99.80;;;;;;5074883;28;20220;-60
2022/04/29 22:27:50;;;;;;;7.90;4.03;;;12.20;99.80;;;;;;5075101;28;20211;-59
2022/04/29 22:30:17;;;;;;;8.13;3.80;;;12.20;99.80;;;;;;5075273;28;20201;-60
2022/04/29 22:32:45;;;;;;;5.73;3.87;;;12.20;99.70;;;;;;5074696;28;20213;-60
2022/04/29 22:35:11;;;;;;;6.90;3.80;;;12.30;99.70;;;;;;5074849;28;20291;-59
2022/04/29 22:37:39;;;;;;;5.87;3.70;;;12.20;99.80;;;;;;5074970;28;20215;-59
2022/04/29 22:40:08;;;;;;;5.87;3.77;;;12.20;99.90;;;;;;5074711;28;20281;-58
2022/04/29 22:42:41;;;;;;;7.67;3.83;;;12.20;99.90;;;;;;5074743;28;20201;-59
2022/04/29 22:45:10;;;;;;;8.40;4.03;;;12.20;99.90;;;;;;5075047;28;20650;-60
2022/04/29 22:47:38;;;;;;;5.60;3.90;;;12.20;99.90;;;;;;5074622;28;20204;-59
2022/04/29 22:50:06;;;;;;;7.00;4.07;;;12.20;99.90;;;;;;5074891;28;20639;-59
2022/04/29 22:52:33;;;;;;;6.13;4.30;;;12.20;99.90;;;;;;5074527;28;20204;-58
2022/04/29 22:55:00;;;;;;;8.03;5.23;;;12.30;99.90;;;;;;5074664;28;20211;-60
2022/04/29 22:57:27;;;;;;;8.57;4.70;;;12.30;99.90;;;;;;5074189;28;20292;-59
2022/04/29 22:59:55;;;;;;;7.27;4.60;;;12.30;99.90;;;;;;5074288;28;20238;-59
2022/04/29 23:02:22;;;;;;;7.30;4.50;;;12.30;99.90;;;;;;5074050;28;20236;-60
2022/04/29 23:04:48;;;;;;;6.90;4.40;;;12.30;99.90;;;;;;5074471;28;20200;-59
2022/04/29 23:07:15;;;;;;;10.00;5.17;;;12.30;99.90;;;;;;5074561;28;20209;-59
2022/04/29 23:09:43;;;;;;;7.83;4.80;;;12.30;99.90;;;;;;5074391;28;20203;-60
2022/04/29 23:12:11;;;;;;;11.13;5.47;;;12.30;99.90;;;;;;5074207;28;20204;-59
2022/04/29 23:14:39;;;;;;;8.13;4.60;;;12.20;99.90;;;;;;5074019;28;20560;-59
2022/04/29 23:19:11;;;;;;;10.33;5.03;;;12.20;99.90;;;;;;5073969;28;20209;-59
2022/04/29 23:19:54;;;;;;;9.40;5.20;;;12.20;99.90;;;;;;5073680;28;20286;-59
2022/04/29 23:22:21;;;;;;;9.67;5.37;;;12.10;99.90;;;;;;5073038;28;20239;-59
2022/04/29 23:24:48;;;;;;;10.10;6.20;;;12.10;99.90;;;;;;5073874;28;20204;-60
2022/04/29 23:27:16;;;;;;;10.37;5.83;;;12.10;99.90;;;;;;5074201;28;20207;-60
2022/04/29 23:29:44;;;;;;;10.43;5.50;;;12.10;99.90;;;;;;5074123;28;20200;-58
2022/04/29 23:32:12;;;;;;;10.77;5.90;;;12.10;99.90;;;;;;5074088;28;20205;-59
2022/04/29 23:34:39;;;;;;;10.63;5.30;;;12.10;99.90;;;;;;5073590;28;20222;-59
2022/04/29 23:37:06;;;;;;;12.10;5.43;;;12.00;99.90;;;;;;5073828;28;20565;-59
2022/04/29 23:39:33;;;;;;;8.60;5.10;;;12.00;99.90;;;;;;5073620;28;20221;-59
2022/04/29 23:42:00;;;;;;;10.47;5.17;;;12.00;99.90;;;;;;5073814;28;20205;-59
2022/04/29 23:44:28;;;;;;;10.63;5.40;;;12.00;99.90;;;;;;5073580;28;20275;-60
2022/04/29 23:46:54;;;;;;;8.47;4.80;;;12.00;99.90;;;;;;5073657;28;20254;-59
2022/04/29 23:49:23;;;;;;;9.03;4.73;;;12.00;99.90;;;;;;5073851;28;20575;-59
2022/04/29 23:52:09;;;;;;;11.90;5.43;;;11.90;99.90;;;;;;5073840;28;20240;-59
2022/04/29 23:54:36;;;;;;;8.27;4.77;;;12.00;99.90;;;;;;5073387;28;20185;-58
2022/04/29 23:57:04;;;;;;;7.30;4.27;;;11.90;99.90;;;;;;5073525;28;20671;-58
2022/04/29 23:59:32;;;;;;;8.57;4.33;;;11.80;99.90;;;;;;5073179;28;20225;-59
